sensor_id;sensor_type;location;lat;lon;timestamp;P1;durP1;ratioP1;P2;durP2;ratioP2
66585;SDS011;53444;45.822;16.092;2022-12-05T00:00:10;21.52;;;11.93;;
66585;SDS011;53444;45.822;16.092;2022-12-05T00:02:40;25.30;;;12.10;;
66585;SDS011;53444;45.822;16.092;2022-12-05T00:05:07;25.40;;;12.00;;
66585;SDS011;53444;45.822;16.092;2022-12-05T00:07:35;24.70;;;11.67;;
66585;SDS011;53444;45.822;16.092;2022-12-05T00:10:03;27.50;;;12.30;;
66585;SDS011;53444;45.822;16.092;2022-12-05T00:12:30;28.33;;;12.15;;
66585;SDS011;53444;45.822;16.092;2022-12-05T00:14:57;25.20;;;12.15;;
66585;SDS011;53444;45.822;16.092;2022-12-05T00:17:23;28.15;;;13.65;;
66585;SDS011;53444;45.822;16.092;2022-12-05T00:19:52;24.40;;;12.00;;
66585;SDS011;53444;45.822;16.092;2022-12-05T00:22:18;25.02;;;13.00;;
66585;SDS011;53444;45.822;16.092;2022-12-05T00:24:45;30.27;;;13.40;;
66585;SDS011;53444;45.822;16.092;2022-12-05T00:27:11;30.05;;;14.27;;
66585;SDS011;53444;45.822;16.092;2022-12-05T00:29:38;26.08;;;12.50;;
66585;SDS011;53444;45.822;16.092;2022-12-05T00:32:04;29.23;;;12.93;;
66585;SDS011;53444;45.822;16.092;2022-12-05T00:34:31;29.33;;;13.30;;
66585;SDS011;53444;45.822;16.092;2022-12-05T00:36:59;34.92;;;14.23;;
66585;SDS011;53444;45.822;16.092;2022-12-05T00:39:26;30.92;;;14.20;;
66585;SDS011;53444;45.822;16.092;2022-12-05T00:41:52;26.90;;;13.95;;
66585;SDS011;53444;45.822;16.092;2022-12-05T00:44:19;31.43;;;12.47;;
66585;SDS011;53444;45.822;16.092;2022-12-05T00:46:45;27.45;;;13.32;;
66585;SDS011;53444;45.822;16.092;2022-12-05T00:49:12;30.35;;;13.10;;
66585;SDS011;53444;45.822;16.092;2022-12-05T00:51:40;27.17;;;12.27;;
66585;SDS011;53444;45.822;16.092;2022-12-05T00:54:10;30.13;;;13.65;;
66585;SDS011;53444;45.822;16.092;2022-12-05T00:56:39;28.77;;;12.77;;
66585;SDS011;53444;45.822;16.092;2022-12-05T00:59:07;25.60;;;12.20;;
66585;SDS011;53444;45.822;16.092;2022-12-05T01:01:35;27.38;;;12.43;;
66585;SDS011;53444;45.822;16.092;2022-12-05T01:04:03;28.55;;;13.60;;
66585;SDS011;53444;45.822;16.092;2022-12-05T01:06:31;29.95;;;13.23;;
66585;SDS011;53444;45.822;16.092;2022-12-05T01:08:58;26.57;;;13.27;;
66585;SDS011;53444;45.822;16.092;2022-12-05T01:11:27;30.05;;;13.30;;
66585;SDS011;53444;45.822;16.092;2022-12-05T01:13:54;27.45;;;13.10;;
66585;SDS011;53444;45.822;16.092;2022-12-05T01:16:22;27.15;;;12.73;;
66585;SDS011;53444;45.822;16.092;2022-12-05T01:18:50;24.08;;;11.90;;
66585;SDS011;53444;45.822;16.092;2022-12-05T01:21:17;29.40;;;13.13;;
66585;SDS011;53444;45.822;16.092;2022-12-05T01:23:44;27.88;;;12.52;;
66585;SDS011;53444;45.822;16.092;2022-12-05T01:26:11;27.50;;;12.57;;
66585;SDS011;53444;45.822;16.092;2022-12-05T01:28:41;32.50;;;13.05;;
66585;SDS011;53444;45.822;16.092;2022-12-05T01:31:08;30.65;;;14.82;;
66585;SDS011;53444;45.822;16.092;2022-12-05T01:33:39;28.90;;;13.83;;
66585;SDS011;53444;45.822;16.092;2022-12-05T01:36:08;29.10;;;13.13;;
66585;SDS011;53444;45.822;16.092;2022-12-05T01:38:37;30.67;;;14.10;;
66585;SDS011;53444;45.822;16.092;2022-12-05T01:41:04;29.55;;;12.77;;
66585;SDS011;53444;45.822;16.092;2022-12-05T01:43:33;28.17;;;14.10;;
66585;SDS011;53444;45.822;16.092;2022-12-05T01:46:20;22.97;;;11.70;;
66585;SDS011;53444;45.822;16.092;2022-12-05T01:48:47;27.02;;;13.48;;
66585;SDS011;53444;45.822;16.092;2022-12-05T01:51:14;24.10;;;12.60;;
66585;SDS011;53444;45.822;16.092;2022-12-05T01:53:41;23.52;;;11.68;;
66585;SDS011;53444;45.822;16.092;2022-12-05T01:56:08;29.58;;;14.05;;
66585;SDS011;53444;45.822;16.092;2022-12-05T01:58:36;25.30;;;12.80;;
66585;SDS011;53444;45.822;16.092;2022-12-05T02:01:06;30.13;;;12.23;;
66585;SDS011;53444;45.822;16.092;2022-12-05T02:03:33;24.55;;;11.10;;
66585;SDS011;53444;45.822;16.092;2022-12-05T02:06:01;23.35;;;11.05;;
66585;SDS011;53444;45.822;16.092;2022-12-05T02:08:29;22.23;;;11.15;;
66585;SDS011;53444;45.822;16.092;2022-12-05T02:10:55;27.47;;;12.87;;
66585;SDS011;53444;45.822;16.092;2022-12-05T02:13:33;28.08;;;11.27;;
66585;SDS011;53444;45.822;16.092;2022-12-05T02:16:10;24.92;;;12.23;;
66585;SDS011;53444;45.822;16.092;2022-12-05T02:18:47;21.75;;;11.48;;
66585;SDS011;53444;45.822;16.092;2022-12-05T02:24:42;24.90;;;12.67;;
66585;SDS011;53444;45.822;16.092;2022-12-05T02:27:35;28.90;;;12.60;;
66585;SDS011;53444;45.822;16.092;2022-12-05T02:30:12;26.10;;;12.95;;
66585;SDS011;53444;45.822;16.092;2022-12-05T02:32:45;27.50;;;12.07;;
66585;SDS011;53444;45.822;16.092;2022-12-05T02:35:20;26.92;;;12.23;;
66585;SDS011;53444;45.822;16.092;2022-12-05T02:37:59;26.23;;;12.53;;
66585;SDS011;53444;45.822;16.092;2022-12-05T02:40:35;21.75;;;11.00;;
66585;SDS011;53444;45.822;16.092;2022-12-05T02:43:10;24.50;;;11.57;;
66585;SDS011;53444;45.822;16.092;2022-12-05T02:45:42;26.05;;;12.77;;
66585;SDS011;53444;45.822;16.092;2022-12-05T02:48:10;28.70;;;14.38;;
66585;SDS011;53444;45.822;16.092;2022-12-05T02:50:39;38.37;;;17.03;;
66585;SDS011;53444;45.822;16.092;2022-12-05T02:53:08;41.33;;;17.02;;
66585;SDS011;53444;45.822;16.092;2022-12-05T02:55:37;38.78;;;19.42;;
66585;SDS011;53444;45.822;16.092;2022-12-05T02:58:07;36.72;;;18.40;;
66585;SDS011;53444;45.822;16.092;2022-12-05T03:00:38;37.67;;;16.63;;
66585;SDS011;53444;45.822;16.092;2022-12-05T03:03:12;32.23;;;14.70;;
66585;SDS011;53444;45.822;16.092;2022-12-05T03:05:41;31.67;;;14.15;;
66585;SDS011;53444;45.822;16.092;2022-12-05T03:08:12;29.73;;;14.00;;
66585;SDS011;53444;45.822;16.092;2022-12-05T03:10:43;25.98;;;13.05;;
66585;SDS011;53444;45.822;16.092;2022-12-05T03:13:11;29.20;;;13.77;;
66585;SDS011;53444;45.822;16.092;2022-12-05T03:15:42;30.67;;;14.27;;
66585;SDS011;53444;45.822;16.092;2022-12-05T03:18:14;28.98;;;13.10;;
66585;SDS011;53444;45.822;16.092;2022-12-05T03:20:45;30.50;;;13.73;;
66585;SDS011;53444;45.822;16.092;2022-12-05T03:23:15;30.17;;;14.70;;
66585;SDS011;53444;45.822;16.092;2022-12-05T03:25:49;29.17;;;12.98;;
66585;SDS011;53444;45.822;16.092;2022-12-05T03:28:21;26.93;;;11.93;;
66585;SDS011;53444;45.822;16.092;2022-12-05T03:30:51;31.80;;;12.07;;
66585;SDS011;53444;45.822;16.092;2022-12-05T03:33:20;27.73;;;12.77;;
66585;SDS011;53444;45.822;16.092;2022-12-05T03:35:53;27.08;;;11.52;;
66585;SDS011;53444;45.822;16.092;2022-12-05T03:38:28;29.13;;;14.02;;
66585;SDS011;53444;45.822;16.092;2022-12-05T03:41:00;28.97;;;14.60;;
66585;SDS011;53444;45.822;16.092;2022-12-05T03:43:33;28.48;;;12.18;;
66585;SDS011;53444;45.822;16.092;2022-12-05T03:46:05;27.67;;;11.73;;
66585;SDS011;53444;45.822;16.092;2022-12-05T03:48:38;26.20;;;11.65;;
66585;SDS011;53444;45.822;16.092;2022-12-05T03:51:12;28.90;;;12.32;;
66585;SDS011;53444;45.822;16.092;2022-12-05T03:53:43;28.83;;;12.57;;
66585;SDS011;53444;45.822;16.092;2022-12-05T03:56:13;30.95;;;12.70;;
66585;SDS011;53444;45.822;16.092;2022-12-05T03:58:46;27.58;;;13.40;;
66585;SDS011;53444;45.822;16.092;2022-12-05T04:03:57;27.80;;;12.23;;
66585;SDS011;53444;45.822;16.092;2022-12-05T04:06:27;27.13;;;12.77;;
66585;SDS011;53444;45.822;16.092;2022-12-05T04:08:57;28.65;;;12.68;;
66585;SDS011;53444;45.822;16.092;2022-12-05T04:11:27;28.42;;;13.15;;
66585;SDS011;53444;45.822;16.092;2022-12-05T04:13:58;26.30;;;12.52;;
66585;SDS011;53444;45.822;16.092;2022-12-05T04:16:29;24.27;;;11.85;;
66585;SDS011;53444;45.822;16.092;2022-12-05T04:19:21;24.70;;;10.70;;
66585;SDS011;53444;45.822;16.092;2022-12-05T04:24:21;15.98;;;7.18;;
66585;SDS011;53444;45.822;16.092;2022-12-05T04:27:09;18.23;;;8.25;;
66585;SDS011;53444;45.822;16.092;2022-12-05T04:29:48;18.63;;;8.30;;
66585;SDS011;53444;45.822;16.092;2022-12-05T04:32:19;18.87;;;9.07;;
66585;SDS011;53444;45.822;16.092;2022-12-05T04:34:53;19.65;;;8.95;;
66585;SDS011;53444;45.822;16.092;2022-12-05T04:37:24;16.70;;;8.73;;
66585;SDS011;53444;45.822;16.092;2022-12-05T04:39:53;24.23;;;10.65;;
66585;SDS011;53444;45.822;16.092;2022-12-05T04:42:24;20.75;;;9.85;;
66585;SDS011;53444;45.822;16.092;2022-12-05T04:44:54;21.67;;;10.27;;
66585;SDS011;53444;45.822;16.092;2022-12-05T04:47:25;20.50;;;9.77;;
66585;SDS011;53444;45.822;16.092;2022-12-05T04:49:57;23.55;;;10.65;;
66585;SDS011;53444;45.822;16.092;2022-12-05T04:52:25;21.25;;;10.48;;
66585;SDS011;53444;45.822;16.092;2022-12-05T04:54:56;19.50;;;9.70;;
66585;SDS011;53444;45.822;16.092;2022-12-05T04:57:28;22.07;;;9.90;;
66585;SDS011;53444;45.822;16.092;2022-12-05T04:59:58;22.20;;;9.10;;
66585;SDS011;53444;45.822;16.092;2022-12-05T05:02:26;25.63;;;11.15;;
66585;SDS011;53444;45.822;16.092;2022-12-05T05:04:59;22.05;;;9.85;;
66585;SDS011;53444;45.822;16.092;2022-12-05T05:07:28;20.88;;;10.43;;
66585;SDS011;53444;45.822;16.092;2022-12-05T05:09:54;22.47;;;9.60;;
66585;SDS011;53444;45.822;16.092;2022-12-05T05:12:22;24.58;;;9.52;;
66585;SDS011;53444;45.822;16.092;2022-12-05T05:14:48;22.60;;;9.85;;
66585;SDS011;53444;45.822;16.092;2022-12-05T05:17:15;19.92;;;9.80;;
66585;SDS011;53444;45.822;16.092;2022-12-05T05:19:41;24.95;;;9.73;;
66585;SDS011;53444;45.822;16.092;2022-12-05T05:22:09;29.53;;;12.17;;
66585;SDS011;53444;45.822;16.092;2022-12-05T05:24:36;25.35;;;11.07;;
66585;SDS011;53444;45.822;16.092;2022-12-05T05:27:02;23.73;;;11.27;;
66585;SDS011;53444;45.822;16.092;2022-12-05T05:29:29;28.67;;;11.73;;
66585;SDS011;53444;45.822;16.092;2022-12-05T05:31:56;24.95;;;12.55;;
66585;SDS011;53444;45.822;16.092;2022-12-05T05:34:22;19.70;;;9.37;;
66585;SDS011;53444;45.822;16.092;2022-12-05T05:36:50;29.77;;;11.73;;
66585;SDS011;53444;45.822;16.092;2022-12-05T05:39:19;25.55;;;11.82;;
66585;SDS011;53444;45.822;16.092;2022-12-05T05:41:45;20.77;;;10.57;;
66585;SDS011;53444;45.822;16.092;2022-12-05T05:44:12;23.33;;;10.82;;
66585;SDS011;53444;45.822;16.092;2022-12-05T05:46:39;23.10;;;10.87;;
66585;SDS011;53444;45.822;16.092;2022-12-05T05:49:05;25.55;;;9.68;;
66585;SDS011;53444;45.822;16.092;2022-12-05T05:51:32;20.02;;;9.70;;
66585;SDS011;53444;45.822;16.092;2022-12-05T05:53:58;21.60;;;8.77;;
66585;SDS011;53444;45.822;16.092;2022-12-05T05:56:27;18.42;;;9.02;;
66585;SDS011;53444;45.822;16.092;2022-12-05T05:58:55;22.43;;;8.70;;
66585;SDS011;53444;45.822;16.092;2022-12-05T06:01:23;20.45;;;9.13;;
66585;SDS011;53444;45.822;16.092;2022-12-05T06:03:50;18.75;;;9.25;;
66585;SDS011;53444;45.822;16.092;2022-12-05T06:06:17;21.17;;;9.10;;
66585;SDS011;53444;45.822;16.092;2022-12-05T06:08:45;18.83;;;9.25;;
66585;SDS011;53444;45.822;16.092;2022-12-05T06:11:12;23.20;;;8.83;;
66585;SDS011;53444;45.822;16.092;2022-12-05T06:13:41;17.75;;;7.90;;
66585;SDS011;53444;45.822;16.092;2022-12-05T06:16:09;16.23;;;7.65;;
66585;SDS011;53444;45.822;16.092;2022-12-05T06:18:37;18.40;;;8.32;;
66585;SDS011;53444;45.822;16.092;2022-12-05T06:21:04;15.60;;;7.57;;
66585;SDS011;53444;45.822;16.092;2022-12-05T06:23:32;23.97;;;11.63;;
66585;SDS011;53444;45.822;16.092;2022-12-05T06:26:00;16.73;;;9.43;;
66585;SDS011;53444;45.822;16.092;2022-12-05T06:28:27;15.82;;;8.13;;
66585;SDS011;53444;45.822;16.092;2022-12-05T06:30:55;17.60;;;7.75;;
66585;SDS011;53444;45.822;16.092;2022-12-05T06:33:22;18.98;;;8.75;;
66585;SDS011;53444;45.822;16.092;2022-12-05T06:35:59;14.07;;;7.30;;
66585;SDS011;53444;45.822;16.092;2022-12-05T06:38:27;14.57;;;7.10;;
66585;SDS011;53444;45.822;16.092;2022-12-05T06:40:53;15.57;;;7.20;;
66585;SDS011;53444;45.822;16.092;2022-12-05T06:43:20;16.13;;;7.13;;
66585;SDS011;53444;45.822;16.092;2022-12-05T06:45:47;21.98;;;9.38;;
66585;SDS011;53444;45.822;16.092;2022-12-05T06:48:14;16.77;;;7.87;;
66585;SDS011;53444;45.822;16.092;2022-12-05T06:50:46;18.10;;;8.43;;
66585;SDS011;53444;45.822;16.092;2022-12-05T06:53:13;18.65;;;7.40;;
66585;SDS011;53444;45.822;16.092;2022-12-05T06:55:40;21.30;;;9.98;;
66585;SDS011;53444;45.822;16.092;2022-12-05T06:58:06;21.85;;;10.88;;
66585;SDS011;53444;45.822;16.092;2022-12-05T07:00:33;21.57;;;9.93;;
66585;SDS011;53444;45.822;16.092;2022-12-05T07:03:18;17.63;;;9.35;;
66585;SDS011;53444;45.822;16.092;2022-12-05T07:05:45;23.10;;;11.77;;
66585;SDS011;53444;45.822;16.092;2022-12-05T07:08:12;23.08;;;9.15;;
66585;SDS011;53444;45.822;16.092;2022-12-05T07:10:38;22.60;;;10.13;;
66585;SDS011;53444;45.822;16.092;2022-12-05T07:13:05;21.07;;;9.50;;
66585;SDS011;53444;45.822;16.092;2022-12-05T07:15:31;30.88;;;11.10;;
66585;SDS011;53444;45.822;16.092;2022-12-05T07:17:58;40.05;;;15.98;;
66585;SDS011;53444;45.822;16.092;2022-12-05T07:20:26;26.38;;;11.48;;
66585;SDS011;53444;45.822;16.092;2022-12-05T07:22:53;27.25;;;11.40;;
66585;SDS011;53444;45.822;16.092;2022-12-05T07:25:19;22.93;;;10.80;;
66585;SDS011;53444;45.822;16.092;2022-12-05T07:27:47;23.83;;;11.18;;
66585;SDS011;53444;45.822;16.092;2022-12-05T07:30:14;23.40;;;10.15;;
66585;SDS011;53444;45.822;16.092;2022-12-05T07:32:40;23.55;;;10.10;;
66585;SDS011;53444;45.822;16.092;2022-12-05T07:35:07;24.45;;;11.35;;
66585;SDS011;53444;45.822;16.092;2022-12-05T07:37:35;21.87;;;10.50;;
66585;SDS011;53444;45.822;16.092;2022-12-05T07:40:02;23.90;;;10.45;;
66585;SDS011;53444;45.822;16.092;2022-12-05T07:42:30;23.17;;;10.55;;
66585;SDS011;53444;45.822;16.092;2022-12-05T07:44:56;23.08;;;11.07;;
66585;SDS011;53444;45.822;16.092;2022-12-05T07:47:23;24.65;;;12.18;;
66585;SDS011;53444;45.822;16.092;2022-12-05T07:49:50;22.53;;;9.83;;
66585;SDS011;53444;45.822;16.092;2022-12-05T07:52:16;20.70;;;8.98;;
66585;SDS011;53444;45.822;16.092;2022-12-05T07:54:44;22.63;;;10.73;;
66585;SDS011;53444;45.822;16.092;2022-12-05T07:57:11;24.15;;;10.95;;
66585;SDS011;53444;45.822;16.092;2022-12-05T07:59:37;19.77;;;9.68;;
66585;SDS011;53444;45.822;16.092;2022-12-05T08:02:04;20.70;;;9.17;;
66585;SDS011;53444;45.822;16.092;2022-12-05T08:04:31;22.00;;;9.95;;
66585;SDS011;53444;45.822;16.092;2022-12-05T08:06:58;24.48;;;10.13;;
66585;SDS011;53444;45.822;16.092;2022-12-05T08:09:24;26.50;;;12.05;;
66585;SDS011;53444;45.822;16.092;2022-12-05T08:11:53;29.25;;;13.35;;
66585;SDS011;53444;45.822;16.092;2022-12-05T08:14:19;29.70;;;13.77;;
66585;SDS011;53444;45.822;16.092;2022-12-05T08:16:46;32.45;;;13.10;;
66585;SDS011;53444;45.822;16.092;2022-12-05T08:19:13;33.22;;;14.25;;
66585;SDS011;53444;45.822;16.092;2022-12-05T08:21:41;32.35;;;13.55;;
66585;SDS011;53444;45.822;16.092;2022-12-05T08:24:08;30.15;;;14.52;;
66585;SDS011;53444;45.822;16.092;2022-12-05T08:26:35;28.97;;;13.53;;
66585;SDS011;53444;45.822;16.092;2022-12-05T08:29:04;28.52;;;13.65;;
66585;SDS011;53444;45.822;16.092;2022-12-05T08:31:33;23.25;;;10.07;;
66585;SDS011;53444;45.822;16.092;2022-12-05T08:34:01;21.55;;;10.57;;
66585;SDS011;53444;45.822;16.092;2022-12-05T08:36:28;23.65;;;11.07;;
66585;SDS011;53444;45.822;16.092;2022-12-05T08:38:56;22.80;;;10.93;;
66585;SDS011;53444;45.822;16.092;2022-12-05T08:41:24;22.13;;;10.93;;
66585;SDS011;53444;45.822;16.092;2022-12-05T08:43:54;24.92;;;10.65;;
66585;SDS011;53444;45.822;16.092;2022-12-05T08:46:22;22.27;;;10.90;;
66585;SDS011;53444;45.822;16.092;2022-12-05T08:48:50;22.88;;;10.75;;
66585;SDS011;53444;45.822;16.092;2022-12-05T08:51:16;24.13;;;11.03;;
66585;SDS011;53444;45.822;16.092;2022-12-05T08:53:43;29.63;;;14.23;;
66585;SDS011;53444;45.822;16.092;2022-12-05T08:56:14;25.95;;;12.32;;
66585;SDS011;53444;45.822;16.092;2022-12-05T08:58:40;27.55;;;12.80;;
66585;SDS011;53444;45.822;16.092;2022-12-05T09:01:08;24.35;;;13.15;;
66585;SDS011;53444;45.822;16.092;2022-12-05T09:03:37;23.83;;;12.60;;
66585;SDS011;53444;45.822;16.092;2022-12-05T09:06:05;25.98;;;11.82;;
66585;SDS011;53444;45.822;16.092;2022-12-05T09:08:32;19.15;;;9.82;;
66585;SDS011;53444;45.822;16.092;2022-12-05T09:10:59;21.92;;;9.88;;
66585;SDS011;53444;45.822;16.092;2022-12-05T09:13:29;22.02;;;11.13;;
66585;SDS011;53444;45.822;16.092;2022-12-05T09:15:56;28.17;;;11.80;;
66585;SDS011;53444;45.822;16.092;2022-12-05T09:18:22;29.05;;;12.93;;
66585;SDS011;53444;45.822;16.092;2022-12-05T09:20:52;27.90;;;12.10;;
66585;SDS011;53444;45.822;16.092;2022-12-05T09:23:22;25.73;;;10.88;;
66585;SDS011;53444;45.822;16.092;2022-12-05T09:25:51;27.10;;;11.75;;
66585;SDS011;53444;45.822;16.092;2022-12-05T09:28:20;26.13;;;11.50;;
66585;SDS011;53444;45.822;16.092;2022-12-05T09:30:54;39.92;;;18.25;;
66585;SDS011;53444;45.822;16.092;2022-12-05T09:33:21;29.25;;;13.00;;
66585;SDS011;53444;45.822;16.092;2022-12-05T09:35:48;28.25;;;13.80;;
66585;SDS011;53444;45.822;16.092;2022-12-05T09:38:16;24.40;;;12.80;;
66585;SDS011;53444;45.822;16.092;2022-12-05T09:40:43;24.57;;;12.13;;
66585;SDS011;53444;45.822;16.092;2022-12-05T09:43:13;26.15;;;12.10;;
66585;SDS011;53444;45.822;16.092;2022-12-05T09:45:50;26.73;;;11.63;;
66585;SDS011;53444;45.822;16.092;2022-12-05T09:48:21;21.25;;;11.60;;
66585;SDS011;53444;45.822;16.092;2022-12-05T09:50:51;22.10;;;10.43;;
66585;SDS011;53444;45.822;16.092;2022-12-05T09:53:25;27.63;;;13.23;;
66585;SDS011;53444;45.822;16.092;2022-12-05T09:55:55;31.80;;;14.15;;
66585;SDS011;53444;45.822;16.092;2022-12-05T09:58:29;38.20;;;15.98;;
66585;SDS011;53444;45.822;16.092;2022-12-05T10:01:11;29.05;;;14.80;;
66585;SDS011;53444;45.822;16.092;2022-12-05T10:03:59;30.00;;;14.95;;
66585;SDS011;53444;45.822;16.092;2022-12-05T10:06:31;33.80;;;15.97;;
66585;SDS011;53444;45.822;16.092;2022-12-05T10:09:13;32.97;;;14.55;;
66585;SDS011;53444;45.822;16.092;2022-12-05T10:11:56;36.88;;;16.73;;
66585;SDS011;53444;45.822;16.092;2022-12-05T10:14:31;33.83;;;13.68;;
66585;SDS011;53444;45.822;16.092;2022-12-05T10:17:15;26.27;;;13.00;;
66585;SDS011;53444;45.822;16.092;2022-12-05T10:19:47;42.27;;;15.53;;
66585;SDS011;53444;45.822;16.092;2022-12-05T10:22:17;31.40;;;15.15;;
66585;SDS011;53444;45.822;16.092;2022-12-05T10:24:51;33.72;;;16.10;;
66585;SDS011;53444;45.822;16.092;2022-12-05T10:27:23;33.80;;;15.20;;
66585;SDS011;53444;45.822;16.092;2022-12-05T10:29:58;36.63;;;13.80;;
66585;SDS011;53444;45.822;16.092;2022-12-05T10:32:30;34.00;;;13.87;;
66585;SDS011;53444;45.822;16.092;2022-12-05T10:35:11;33.22;;;15.05;;
66585;SDS011;53444;45.822;16.092;2022-12-05T10:37:45;34.03;;;17.48;;
66585;SDS011;53444;45.822;16.092;2022-12-05T10:40:15;36.10;;;15.02;;
66585;SDS011;53444;45.822;16.092;2022-12-05T10:42:42;32.67;;;16.05;;
66585;SDS011;53444;45.822;16.092;2022-12-05T10:45:14;35.73;;;16.37;;
66585;SDS011;53444;45.822;16.092;2022-12-05T10:47:43;47.05;;;19.20;;
66585;SDS011;53444;45.822;16.092;2022-12-05T10:52:46;40.85;;;18.17;;
66585;SDS011;53444;45.822;16.092;2022-12-05T10:55:17;40.67;;;16.60;;
66585;SDS011;53444;45.822;16.092;2022-12-05T10:57:46;34.07;;;14.17;;
66585;SDS011;53444;45.822;16.092;2022-12-05T11:00:18;33.65;;;15.00;;
66585;SDS011;53444;45.822;16.092;2022-12-05T11:02:47;35.20;;;14.27;;
66585;SDS011;53444;45.822;16.092;2022-12-05T11:05:16;32.25;;;14.50;;
66585;SDS011;53444;45.822;16.092;2022-12-05T11:07:58;32.22;;;14.95;;
66585;SDS011;53444;45.822;16.092;2022-12-05T11:10:30;29.90;;;13.07;;
66585;SDS011;53444;45.822;16.092;2022-12-05T11:13:00;30.38;;;14.35;;
66585;SDS011;53444;45.822;16.092;2022-12-05T11:15:28;33.90;;;15.02;;
66585;SDS011;53444;45.822;16.092;2022-12-05T11:18:16;25.90;;;12.65;;
66585;SDS011;53444;45.822;16.092;2022-12-05T11:20:44;29.17;;;14.77;;
66585;SDS011;53444;45.822;16.092;2022-12-05T11:23:24;30.67;;;14.00;;
66585;SDS011;53444;45.822;16.092;2022-12-05T11:25:57;30.27;;;13.73;;
66585;SDS011;53444;45.822;16.092;2022-12-05T11:28:28;27.77;;;13.18;;
66585;SDS011;53444;45.822;16.092;2022-12-05T11:31:00;21.95;;;10.40;;
66585;SDS011;53444;45.822;16.092;2022-12-05T11:33:29;30.73;;;13.23;;
66585;SDS011;53444;45.822;16.092;2022-12-05T11:35:58;25.63;;;11.63;;
66585;SDS011;53444;45.822;16.092;2022-12-05T11:38:29;27.20;;;11.77;;
66585;SDS011;53444;45.822;16.092;2022-12-05T11:41:07;26.48;;;11.90;;
66585;SDS011;53444;45.822;16.092;2022-12-05T11:43:56;23.90;;;10.82;;
66585;SDS011;53444;45.822;16.092;2022-12-05T11:46:32;17.75;;;9.88;;
66585;SDS011;53444;45.822;16.092;2022-12-05T11:49:11;23.90;;;11.50;;
66585;SDS011;53444;45.822;16.092;2022-12-05T11:51:55;29.77;;;13.77;;
66585;SDS011;53444;45.822;16.092;2022-12-05T11:54:39;38.90;;;17.00;;
66585;SDS011;53444;45.822;16.092;2022-12-05T11:57:23;33.55;;;15.15;;
66585;SDS011;53444;45.822;16.092;2022-12-05T12:00:11;30.95;;;13.40;;
66585;SDS011;53444;45.822;16.092;2022-12-05T12:02:52;27.20;;;12.83;;
66585;SDS011;53444;45.822;16.092;2022-12-05T12:05:37;27.50;;;12.85;;
66585;SDS011;53444;45.822;16.092;2022-12-05T12:08:10;25.95;;;11.50;;
66585;SDS011;53444;45.822;16.092;2022-12-05T12:10:46;22.45;;;10.90;;
66585;SDS011;53444;45.822;16.092;2022-12-05T12:13:22;26.85;;;12.38;;
66585;SDS011;53444;45.822;16.092;2022-12-05T12:15:58;26.57;;;11.37;;
66585;SDS011;53444;45.822;16.092;2022-12-05T12:18:42;28.15;;;12.93;;
66585;SDS011;53444;45.822;16.092;2022-12-05T12:21:22;29.08;;;12.82;;
66585;SDS011;53444;45.822;16.092;2022-12-05T12:23:58;31.65;;;14.18;;
66585;SDS011;53444;45.822;16.092;2022-12-05T12:26:35;35.65;;;14.00;;
66585;SDS011;53444;45.822;16.092;2022-12-05T12:29:15;27.63;;;13.73;;
66585;SDS011;53444;45.822;16.092;2022-12-05T12:31:58;34.30;;;15.27;;
66585;SDS011;53444;45.822;16.092;2022-12-05T12:34:46;35.13;;;15.98;;
66585;SDS011;53444;45.822;16.092;2022-12-05T12:37:24;35.33;;;15.30;;
66585;SDS011;53444;45.822;16.092;2022-12-05T12:39:59;41.88;;;16.05;;
66585;SDS011;53444;45.822;16.092;2022-12-05T12:42:31;46.47;;;21.97;;
66585;SDS011;53444;45.822;16.092;2022-12-05T12:48:14;43.72;;;19.42;;
66585;SDS011;53444;45.822;16.092;2022-12-05T12:50:52;40.65;;;18.05;;
66585;SDS011;53444;45.822;16.092;2022-12-05T12:56:21;42.07;;;17.10;;
66585;SDS011;53444;45.822;16.092;2022-12-05T12:59:05;35.08;;;15.20;;
66585;SDS011;53444;45.822;16.092;2022-12-05T13:01:44;36.70;;;17.13;;
66585;SDS011;53444;45.822;16.092;2022-12-05T13:04:18;28.00;;;13.77;;
66585;SDS011;53444;45.822;16.092;2022-12-05T13:06:51;39.85;;;18.50;;
66585;SDS011;53444;45.822;16.092;2022-12-05T13:09:20;42.53;;;20.03;;
66585;SDS011;53444;45.822;16.092;2022-12-05T13:11:50;39.50;;;18.70;;
66585;SDS011;53444;45.822;16.092;2022-12-05T13:14:19;38.72;;;19.33;;
66585;SDS011;53444;45.822;16.092;2022-12-05T13:16:51;38.38;;;17.98;;
66585;SDS011;53444;45.822;16.092;2022-12-05T13:19:23;37.45;;;17.48;;
66585;SDS011;53444;45.822;16.092;2022-12-05T13:21:52;37.47;;;17.77;;
66585;SDS011;53444;45.822;16.092;2022-12-05T13:24:22;34.42;;;17.70;;
66585;SDS011;53444;45.822;16.092;2022-12-05T13:26:51;43.45;;;19.17;;
66585;SDS011;53444;45.822;16.092;2022-12-05T13:29:19;37.15;;;15.95;;
66585;SDS011;53444;45.822;16.092;2022-12-05T13:31:48;34.45;;;15.95;;
66585;SDS011;53444;45.822;16.092;2022-12-05T13:37:10;36.28;;;16.23;;
66585;SDS011;53444;45.822;16.092;2022-12-05T13:40:02;36.53;;;18.67;;
66585;SDS011;53444;45.822;16.092;2022-12-05T13:42:47;40.70;;;18.55;;
66585;SDS011;53444;45.822;16.092;2022-12-05T13:45:25;41.72;;;18.05;;
66585;SDS011;53444;45.822;16.092;2022-12-05T13:47:54;34.53;;;17.27;;
66585;SDS011;53444;45.822;16.092;2022-12-05T13:50:39;41.95;;;18.58;;
66585;SDS011;53444;45.822;16.092;2022-12-05T13:53:18;39.90;;;18.70;;
66585;SDS011;53444;45.822;16.092;2022-12-05T13:55:53;33.78;;;15.40;;
66585;SDS011;53444;45.822;16.092;2022-12-05T13:58:35;35.20;;;17.58;;
66585;SDS011;53444;45.822;16.092;2022-12-05T14:04:21;49.65;;;21.45;;
66585;SDS011;53444;45.822;16.092;2022-12-05T14:07:05;41.83;;;21.55;;
66585;SDS011;53444;45.822;16.092;2022-12-05T14:09:47;46.53;;;20.48;;
66585;SDS011;53444;45.822;16.092;2022-12-05T14:12:28;42.38;;;20.80;;
66585;SDS011;53444;45.822;16.092;2022-12-05T14:15:22;42.60;;;18.80;;
66585;SDS011;53444;45.822;16.092;2022-12-05T14:18:10;41.60;;;18.05;;
66585;SDS011;53444;45.822;16.092;2022-12-05T14:20:47;43.33;;;19.27;;
66585;SDS011;53444;45.822;16.092;2022-12-05T14:23:33;47.67;;;18.42;;
66585;SDS011;53444;45.822;16.092;2022-12-05T14:26:17;54.08;;;22.70;;
66585;SDS011;53444;45.822;16.092;2022-12-05T14:29:11;51.10;;;17.83;;
66585;SDS011;53444;45.822;16.092;2022-12-05T14:32:00;43.38;;;16.70;;
66585;SDS011;53444;45.822;16.092;2022-12-05T14:34:35;94.30;;;31.30;;
66585;SDS011;53444;45.822;16.092;2022-12-05T14:37:19;68.88;;;25.77;;
66585;SDS011;53444;45.822;16.092;2022-12-05T14:39:56;123.20;;;42.35;;
66585;SDS011;53444;45.822;16.092;2022-12-05T14:42:26;69.50;;;26.60;;
66585;SDS011;53444;45.822;16.092;2022-12-05T14:45:00;53.85;;;22.40;;
66585;SDS011;53444;45.822;16.092;2022-12-05T14:47:47;45.50;;;19.10;;
66585;SDS011;53444;45.822;16.092;2022-12-05T14:50:30;65.38;;;27.38;;
66585;SDS011;53444;45.822;16.092;2022-12-05T14:56:03;45.33;;;19.57;;
66585;SDS011;53444;45.822;16.092;2022-12-05T14:58:36;51.97;;;20.05;;
66585;SDS011;53444;45.822;16.092;2022-12-05T15:01:12;88.70;;;35.53;;